sensor_id;sensor_type;location;lat;lon;timestamp;pressure;altitude;pressure_sealevel;temperature;humidity
73171;BME280;61381;50.118;19.962;2022-10-17T00:03:43;99668.09;;;8.05;100.00
73171;BME280;61381;50.118;19.962;2022-10-17T00:08:44;99670.34;;;7.96;100.00
73171;BME280;61381;50.118;19.962;2022-10-17T00:13:45;99677.53;;;7.96;100.00
73171;BME280;61381;50.118;19.962;2022-10-17T00:18:47;99675.91;;;7.95;100.00
73171;BME280;61381;50.118;19.962;2022-10-17T00:23:49;99689.09;;;8.01;100.00
73171;BME280;61381;50.118;19.962;2022-10-17T00:28:51;99688.41;;;8.06;100.00
73171;BME280;61381;50.118;19.962;2022-10-17T00:33:53;99685.50;;;8.08;100.00
73171;BME280;61381;50.118;19.962;2022-10-17T00:38:56;99685.25;;;8.09;100.00
73171;BME280;61381;50.118;19.962;2022-10-17T00:43:59;99698.03;;;8.07;100.00
73171;BME280;61381;50.118;19.962;2022-10-17T00:49:05;99688.19;;;7.96;100.00
73171;BME280;61381;50.118;19.962;2022-10-17T00:54:08;99686.81;;;7.93;100.00
73171;BME280;61381;50.118;19.962;2022-10-17T00:59:11;99680.06;;;8.02;100.00
73171;BME280;61381;50.118;19.962;2022-10-17T01:04:14;99689.25;;;7.95;100.00
73171;BME280;61381;50.118;19.962;2022-10-17T01:09:15;99683.59;;;8.20;100.00
73171;BME280;61381;50.118;19.962;2022-10-17T01:14:23;99682.31;;;8.23;100.00
73171;BME280;61381;50.118;19.962;2022-10-17T01:19:38;99689.44;;;8.05;100.00
73171;BME280;61381;50.118;19.962;2022-10-17T01:25:22;99684.00;;;8.00;100.00
73171;BME280;61381;50.118;19.962;2022-10-17T01:35:55;99684.75;;;8.24;100.00
73171;BME280;61381;50.118;19.962;2022-10-17T01:41:01;99689.91;;;8.31;100.00
73171;BME280;61381;50.118;19.962;2022-10-17T01:46:07;99681.13;;;8.30;100.00
73171;BME280;61381;50.118;19.962;2022-10-17T01:51:16;99686.28;;;8.08;100.00
73171;BME280;61381;50.118;19.962;2022-10-17T01:56:18;99687.50;;;7.89;100.00
73171;BME280;61381;50.118;19.962;2022-10-17T02:01:22;99687.50;;;7.89;100.00
73171;BME280;61381;50.118;19.962;2022-10-17T02:06:25;99693.09;;;7.87;100.00
73171;BME280;61381;50.118;19.962;2022-10-17T02:11:26;99692.91;;;7.77;100.00
73171;BME280;61381;50.118;19.962;2022-10-17T02:16:33;99692.75;;;7.83;100.00
73171;BME280;61381;50.118;19.962;2022-10-17T02:21:44;99687.00;;;7.63;100.00
73171;BME280;61381;50.118;19.962;2022-10-17T02:26:52;99694.09;;;7.45;100.00
73171;BME280;61381;50.118;19.962;2022-10-17T02:31:59;99692.72;;;7.43;100.00
73171;BME280;61381;50.118;19.962;2022-10-17T02:37:06;99692.13;;;7.41;100.00
73171;BME280;61381;50.118;19.962;2022-10-17T02:42:10;99690.50;;;7.52;100.00
73171;BME280;61381;50.118;19.962;2022-10-17T02:47:16;99683.19;;;7.47;100.00
73171;BME280;61381;50.118;19.962;2022-10-17T02:52:25;99708.03;;;7.47;100.00
73171;BME280;61381;50.118;19.962;2022-10-17T02:57:30;99709.06;;;7.58;100.00
73171;BME280;61381;50.118;19.962;2022-10-17T03:02:38;99710.25;;;7.79;100.00
73171;BME280;61381;50.118;19.962;2022-10-17T03:07:40;99706.03;;;7.55;100.00
73171;BME280;61381;50.118;19.962;2022-10-17T03:12:42;99709.75;;;7.30;100.00
73171;BME280;61381;50.118;19.962;2022-10-17T03:17:42;99714.03;;;7.19;100.00
73171;BME280;61381;50.118;19.962;2022-10-17T03:22:45;99717.72;;;7.18;100.00
73171;BME280;61381;50.118;19.962;2022-10-17T03:27:46;99719.00;;;7.04;100.00
73171;BME280;61381;50.118;19.962;2022-10-17T03:32:46;99728.59;;;6.93;100.00
73171;BME280;61381;50.118;19.962;2022-10-17T03:37:49;99733.13;;;6.92;100.00
73171;BME280;61381;50.118;19.962;2022-10-17T03:42:49;99738.31;;;6.87;100.00
73171;BME280;61381;50.118;19.962;2022-10-17T03:47:50;99751.28;;;6.84;100.00
73171;BME280;61381;50.118;19.962;2022-10-17T03:52:52;99743.34;;;6.95;100.00
73171;BME280;61381;50.118;19.962;2022-10-17T03:57:53;99740.31;;;7.04;100.00
73171;BME280;61381;50.118;19.962;2022-10-17T04:02:54;99752.00;;;6.91;100.00
73171;BME280;61381;50.118;19.962;2022-10-17T04:07:56;99750.25;;;6.96;100.00
73171;BME280;61381;50.118;19.962;2022-10-17T04:12:57;99748.75;;;6.89;100.00
73171;BME280;61381;50.118;19.962;2022-10-17T04:17:58;99750.50;;;6.95;100.00
73171;BME280;61381;50.118;19.962;2022-10-17T04:23:00;99760.22;;;6.89;100.00
73171;BME280;61381;50.118;19.962;2022-10-17T04:28:01;99762.34;;;6.69;100.00
73171;BME280;61381;50.118;19.962;2022-10-17T04:33:02;99774.31;;;6.78;100.00
73171;BME280;61381;50.118;19.962;2022-10-17T04:38:04;99779.28;;;6.74;100.00
73171;BME280;61381;50.118;19.962;2022-10-17T04:43:05;99774.97;;;6.62;100.00
73171;BME280;61381;50.118;19.962;2022-10-17T04:48:06;99774.59;;;6.58;100.00
73171;BME280;61381;50.118;19.962;2022-10-17T04:53:08;99771.56;;;6.54;100.00
73171;BME280;61381;50.118;19.962;2022-10-17T04:58:09;99774.00;;;6.56;100.00
73171;BME280;61381;50.118;19.962;2022-10-17T05:03:10;99784.06;;;6.54;100.00
73171;BME280;61381;50.118;19.962;2022-10-17T05:08:13;99779.19;;;6.51;100.00
73171;BME280;61381;50.118;19.962;2022-10-17T05:13:13;99779.84;;;7.07;100.00
73171;BME280;61381;50.118;19.962;2022-10-17T05:18:14;99786.88;;;6.89;100.00
73171;BME280;61381;50.118;19.962;2022-10-17T05:23:17;99794.25;;;6.75;100.00
73171;BME280;61381;50.118;19.962;2022-10-17T05:28:18;99791.00;;;6.85;100.00
73171;BME280;61381;50.118;19.962;2022-10-17T05:33:19;99782.72;;;7.05;100.00
73171;BME280;61381;50.118;19.962;2022-10-17T05:38:21;99793.41;;;7.17;100.00
73171;BME280;61381;50.118;19.962;2022-10-17T05:43:22;99802.06;;;7.01;100.00
73171;BME280;61381;50.118;19.962;2022-10-17T05:48:23;99802.31;;;7.23;100.00
73171;BME280;61381;50.118;19.962;2022-10-17T05:53:25;99806.75;;;7.41;100.00
73171;BME280;61381;50.118;19.962;2022-10-17T05:58:29;99820.91;;;8.00;100.00
73171;BME280;61381;50.118;19.962;2022-10-17T06:03:30;99829.06;;;8.34;100.00
73171;BME280;61381;50.118;19.962;2022-10-17T06:08:33;99832.84;;;8.21;100.00
73171;BME280;61381;50.118;19.962;2022-10-17T06:13:34;99846.19;;;8.21;100.00
73171;BME280;61381;50.118;19.962;2022-10-17T06:18:35;99850.22;;;8.48;100.00
73171;BME280;61381;50.118;19.962;2022-10-17T06:23:37;99854.56;;;8.78;100.00
73171;BME280;61381;50.118;19.962;2022-10-17T06:28:38;99854.91;;;8.98;100.00
73171;BME280;61381;50.118;19.962;2022-10-17T06:33:39;99852.47;;;9.25;100.00
73171;BME280;61381;50.118;19.962;2022-10-17T06:38:41;99869.97;;;9.50;100.00
73171;BME280;61381;50.118;19.962;2022-10-17T06:43:43;99873.31;;;9.74;100.00
73171;BME280;61381;50.118;19.962;2022-10-17T06:48:44;99881.78;;;10.05;100.00
73171;BME280;61381;50.118;19.962;2022-10-17T06:53:46;99878.19;;;10.33;100.00
73171;BME280;61381;50.118;19.962;2022-10-17T06:58:47;99884.66;;;10.82;100.00
73171;BME280;61381;50.118;19.962;2022-10-17T07:03:48;99890.22;;;11.24;100.00
73171;BME280;61381;50.118;19.962;2022-10-17T07:08:51;99888.03;;;11.49;100.00
73171;BME280;61381;50.118;19.962;2022-10-17T07:13:51;99890.38;;;11.45;100.00
73171;BME280;61381;50.118;19.962;2022-10-17T07:18:53;99890.19;;;11.52;100.00
73171;BME280;61381;50.118;19.962;2022-10-17T07:23:55;99896.56;;;11.78;100.00
73171;BME280;61381;50.118;19.962;2022-10-17T07:28:56;99893.44;;;12.29;100.00
73171;BME280;61381;50.118;19.962;2022-10-17T07:33:58;99885.75;;;12.53;98.96
73171;BME280;61381;50.118;19.962;2022-10-17T07:39:00;99886.88;;;12.67;95.17
73171;BME280;61381;50.118;19.962;2022-10-17T07:44:01;99888.28;;;12.80;94.15
73171;BME280;61381;50.118;19.962;2022-10-17T07:49:02;99888.59;;;13.05;92.22
73171;BME280;61381;50.118;19.962;2022-10-17T07:54:05;99888.16;;;13.33;89.59
73171;BME280;61381;50.118;19.962;2022-10-17T07:59:06;99904.31;;;13.59;86.93
73171;BME280;61381;50.118;19.962;2022-10-17T08:04:06;99910.22;;;14.13;86.63
73171;BME280;61381;50.118;19.962;2022-10-17T08:09:09;99905.03;;;14.37;83.44
73171;BME280;61381;50.118;19.962;2022-10-17T08:14:09;99908.47;;;14.63;80.83
73171;BME280;61381;50.118;19.962;2022-10-17T08:19:10;99903.06;;;14.73;81.36
73171;BME280;61381;50.118;19.962;2022-10-17T08:24:13;99921.34;;;14.82;81.51
73171;BME280;61381;50.118;19.962;2022-10-17T08:29:14;99909.69;;;14.96;79.17
73171;BME280;61381;50.118;19.962;2022-10-17T08:34:16;99905.56;;;15.09;78.31
73171;BME280;61381;50.118;19.962;2022-10-17T08:39:18;99911.31;;;15.37;76.95
73171;BME280;61381;50.118;19.962;2022-10-17T08:44:27;99916.78;;;15.66;75.30
73171;BME280;61381;50.118;19.962;2022-10-17T08:49:37;99912.75;;;15.98;74.48
73171;BME280;61381;50.118;19.962;2022-10-17T08:54:42;99919.13;;;16.13;73.07
73171;BME280;61381;50.118;19.962;2022-10-17T08:59:48;99925.06;;;16.39;70.14
73171;BME280;61381;50.118;19.962;2022-10-17T09:04:53;99913.00;;;16.74;68.16
73171;BME280;61381;50.118;19.962;2022-10-17T09:10:06;99913.41;;;17.44;65.03
73171;BME280;61381;50.118;19.962;2022-10-17T09:15:30;99918.66;;;17.92;63.72
73171;BME280;61381;50.118;19.962;2022-10-17T09:20:38;99905.25;;;18.29;64.63
73171;BME280;61381;50.118;19.962;2022-10-17T09:25:43;99911.56;;;18.52;60.95
73171;BME280;61381;50.118;19.962;2022-10-17T09:30:46;99922.59;;;18.83;61.50
73171;BME280;61381;50.118;19.962;2022-10-17T09:35:50;99918.66;;;19.03;59.11
73171;BME280;61381;50.118;19.962;2022-10-17T09:40:55;99917.03;;;19.53;58.10
73171;BME280;61381;50.118;19.962;2022-10-17T09:46:02;99918.00;;;19.57;58.44
73171;BME280;61381;50.118;19.962;2022-10-17T09:51:05;99919.97;;;19.65;56.93
73171;BME280;61381;50.118;19.962;2022-10-17T09:56:11;99912.31;;;19.67;57.91
73171;BME280;61381;50.118;19.962;2022-10-17T10:01:18;99922.13;;;20.00;57.47
73171;BME280;61381;50.118;19.962;2022-10-17T10:06:20;99918.94;;;19.98;56.58
73171;BME280;61381;50.118;19.962;2022-10-17T10:11:24;99911.53;;;19.89;56.63
73171;BME280;61381;50.118;19.962;2022-10-17T10:16:30;99911.72;;;20.33;56.47
73171;BME280;61381;50.118;19.962;2022-10-17T10:21:31;99903.88;;;20.31;55.12
73171;BME280;61381;50.118;19.962;2022-10-17T10:26:38;99904.53;;;20.37;55.04
73171;BME280;61381;50.118;19.962;2022-10-17T10:31:39;99901.63;;;20.34;55.28
73171;BME280;61381;50.118;19.962;2022-10-17T10:36:54;99901.78;;;20.69;55.78
73171;BME280;61381;50.118;19.962;2022-10-17T10:41:58;99909.16;;;20.68;53.51
73171;BME280;61381;50.118;19.962;2022-10-17T10:47:07;99897.00;;;20.92;54.17
73171;BME280;61381;50.118;19.962;2022-10-17T10:52:12;99894.00;;;21.19;53.35
73171;BME280;61381;50.118;19.962;2022-10-17T10:57:20;99885.97;;;21.32;52.23
73171;BME280;61381;50.118;19.962;2022-10-17T11:02:26;99885.66;;;21.33;54.01
73171;BME280;61381;50.118;19.962;2022-10-17T11:07:33;99884.38;;;21.31;51.88
73171;BME280;61381;50.118;19.962;2022-10-17T11:12:39;99877.94;;;21.27;53.13
73171;BME280;61381;50.118;19.962;2022-10-17T11:17:44;99879.06;;;21.43;52.36
73171;BME280;61381;50.118;19.962;2022-10-17T11:22:51;99875.84;;;21.59;51.02
73171;BME280;61381;50.118;19.962;2022-10-17T11:27:54;99875.34;;;21.74;52.09
73171;BME280;61381;50.118;19.962;2022-10-17T11:32:59;99866.63;;;21.98;50.22
73171;BME280;61381;50.118;19.962;2022-10-17T11:38:06;99870.72;;;22.13;51.35
73171;BME280;61381;50.118;19.962;2022-10-17T11:43:18;99869.88;;;22.21;49.93
73171;BME280;61381;50.118;19.962;2022-10-17T11:48:22;99864.09;;;22.32;50.91
73171;BME280;61381;50.118;19.962;2022-10-17T11:53:27;99869.03;;;22.38;49.43
73171;BME280;61381;50.118;19.962;2022-10-17T11:58:38;99857.66;;;22.27;51.19
73171;BME280;61381;50.118;19.962;2022-10-17T12:03:52;99859.28;;;22.79;49.51
73171;BME280;61381;50.118;19.962;2022-10-17T12:09:04;99857.78;;;22.70;49.57
73171;BME280;61381;50.118;19.962;2022-10-17T12:14:37;99853.09;;;22.70;51.29
73171;BME280;61381;50.118;19.962;2022-10-17T12:19:38;99847.25;;;22.80;49.25
73171;BME280;61381;50.118;19.962;2022-10-17T12:24:40;99829.50;;;22.87;48.34
73171;BME280;61381;50.118;19.962;2022-10-17T12:29:44;99825.66;;;23.09;47.89
73171;BME280;61381;50.118;19.962;2022-10-17T12:34:51;99825.47;;;23.14;48.23
73171;BME280;61381;50.118;19.962;2022-10-17T12:39:52;99823.56;;;23.06;48.68
73171;BME280;61381;50.118;19.962;2022-10-17T12:44:54;99822.06;;;23.17;46.77
73171;BME280;61381;50.118;19.962;2022-10-17T12:49:55;99820.72;;;23.23;47.25
73171;BME280;61381;50.118;19.962;2022-10-17T12:55:05;99812.53;;;23.36;47.11
73171;BME280;61381;50.118;19.962;2022-10-17T13:00:16;99816.56;;;23.50;46.33
73171;BME280;61381;50.118;19.962;2022-10-17T13:05:25;99808.50;;;23.54;46.15
73171;BME280;61381;50.118;19.962;2022-10-17T13:10:28;99810.72;;;23.40;46.24
73171;BME280;61381;50.118;19.962;2022-10-17T13:15:31;99809.28;;;23.55;45.90
73171;BME280;61381;50.118;19.962;2022-10-17T13:20:33;99819.09;;;23.56;45.95
73171;BME280;61381;50.118;19.962;2022-10-17T13:25:34;99812.56;;;23.48;44.77
73171;BME280;61381;50.118;19.962;2022-10-17T13:30:36;99805.50;;;23.47;45.83
73171;BME280;61381;50.118;19.962;2022-10-17T13:35:37;99808.91;;;23.44;47.26
73171;BME280;61381;50.118;19.962;2022-10-17T13:40:40;99797.72;;;23.37;46.56
73171;BME280;61381;50.118;19.962;2022-10-17T13:45:45;99806.09;;;23.19;46.64
73171;BME280;61381;50.118;19.962;2022-10-17T13:50:49;99811.88;;;23.39;47.23
73171;BME280;61381;50.118;19.962;2022-10-17T13:55:56;99811.25;;;23.21;47.23
73171;BME280;61381;50.118;19.962;2022-10-17T14:00:59;99803.72;;;23.18;47.78
73171;BME280;61381;50.118;19.962;2022-10-17T14:06:07;99801.53;;;23.11;48.08
73171;BME280;61381;50.118;19.962;2022-10-17T14:11:23;99796.97;;;22.94;48.83
73171;BME280;61381;50.118;19.962;2022-10-17T14:16:33;99800.91;;;22.84;49.05
73171;BME280;61381;50.118;19.962;2022-10-17T14:21:34;99794.16;;;22.82;49.67
73171;BME280;61381;50.118;19.962;2022-10-17T14:26:46;99799.44;;;22.66;49.89
73171;BME280;61381;50.118;19.962;2022-10-17T14:31:48;99801.78;;;22.55;49.49
73171;BME280;61381;50.118;19.962;2022-10-17T14:36:51;99797.38;;;22.41;49.63
73171;BME280;61381;50.118;19.962;2022-10-17T14:41:52;99796.41;;;22.37;50.30
73171;BME280;61381;50.118;19.962;2022-10-17T14:46:58;99788.44;;;22.23;50.77
73171;BME280;61381;50.118;19.962;2022-10-17T14:52:24;99791.81;;;21.99;51.89
73171;BME280;61381;50.118;19.962;2022-10-17T14:57:28;99798.50;;;21.72;55.05
73171;BME280;61381;50.118;19.962;2022-10-17T15:02:35;99794.88;;;21.50;54.28
73171;BME280;61381;50.118;19.962;2022-10-17T15:07:36;99789.59;;;21.19;55.62
73171;BME280;61381;50.118;19.962;2022-10-17T15:12:37;99795.09;;;21.01;55.35
73171;BME280;61381;50.118;19.962;2022-10-17T15:17:39;99798.78;;;20.71;58.64
73171;BME280;61381;50.118;19.962;2022-10-17T15:22:40;99798.59;;;20.67;57.79
73171;BME280;61381;50.118;19.962;2022-10-17T15:27:41;99791.78;;;20.21;60.34
73171;BME280;61381;50.118;19.962;2022-10-17T15:32:43;99792.03;;;19.93;61.55
73171;BME280;61381;50.118;19.962;2022-10-17T15:37:45;99794.88;;;19.56;62.78
73171;BME280;61381;50.118;19.962;2022-10-17T15:43:04;99805.03;;;19.19;66.40
73171;BME280;61381;50.118;19.962;2022-10-17T15:48:17;99810.06;;;18.53;69.88
73171;BME280;61381;50.118;19.962;2022-10-17T15:53:19;99806.06;;;18.23;70.53
73171;BME280;61381;50.118;19.962;2022-10-17T15:58:20;99802.66;;;18.17;70.27
73171;BME280;61381;50.118;19.962;2022-10-17T16:03:22;99820.13;;;17.50;73.96
73171;BME280;61381;50.118;19.962;2022-10-17T16:08:23;99818.94;;;17.04;76.28
73171;BME280;61381;50.118;19.962;2022-10-17T16:13:27;99811.78;;;16.75;77.60
73171;BME280;61381;50.118;19.962;2022-10-17T16:18:29;99813.78;;;16.46;78.50
73171;BME280;61381;50.118;19.962;2022-10-17T16:23:30;99816.00;;;16.19;80.03
73171;BME280;61381;50.118;19.962;2022-10-17T16:28:31;99817.53;;;15.77;81.87
73171;BME280;61381;50.118;19.962;2022-10-17T16:33:33;99816.81;;;15.37;83.49
73171;BME280;61381;50.118;19.962;2022-10-17T16:38:34;99812.91;;;15.19;84.99
73171;BME280;61381;50.118;19.962;2022-10-17T16:43:35;99823.50;;;15.10;85.43
73171;BME280;61381;50.118;19.962;2022-10-17T16:48:37;99805.00;;;14.93;86.19
73171;BME280;61381;50.118;19.962;2022-10-17T16:53:38;99811.94;;;14.55;88.11
73171;BME280;61381;50.118;19.962;2022-10-17T16:58:39;99817.47;;;14.19;90.10
73171;BME280;61381;50.118;19.962;2022-10-17T17:03:43;99806.22;;;13.96;91.47
73171;BME280;61381;50.118;19.962;2022-10-17T17:08:44;99801.94;;;13.90;91.03
73171;BME280;61381;50.118;19.962;2022-10-17T17:13:46;99803.63;;;13.60;92.49
73171;BME280;61381;50.118;19.962;2022-10-17T17:18:52;99803.63;;;13.29;94.08
73171;BME280;61381;50.118;19.962;2022-10-17T17:23:54;99806.81;;;13.06;95.70
73171;BME280;61381;50.118;19.962;2022-10-17T17:28:58;99809.50;;;12.90;96.84
73171;BME280;61381;50.118;19.962;2022-10-17T17:34:01;99814.31;;;12.73;97.45
73171;BME280;61381;50.118;19.962;2022-10-17T17:39:06;99821.25;;;12.58;98.15
73171;BME280;61381;50.118;19.962;2022-10-17T17:44:08;99816.94;;;12.52;98.80
73171;BME280;61381;50.118;19.962;2022-10-17T17:49:11;99808.34;;;12.50;97.90
73171;BME280;61381;50.118;19.962;2022-10-17T17:54:12;99806.41;;;12.40;98.86
73171;BME280;61381;50.118;19.962;2022-10-17T17:59:13;99813.09;;;12.27;99.13
73171;BME280;61381;50.118;19.962;2022-10-17T18:04:15;99803.31;;;12.06;100.00
73171;BME280;61381;50.118;19.962;2022-10-17T18:09:16;99815.25;;;12.36;100.00
73171;BME280;61381;50.118;19.962;2022-10-17T18:14:17;99812.13;;;12.54;98.15
73171;BME280;61381;50.118;19.962;2022-10-17T18:19:20;99813.75;;;12.60;96.27
73171;BME280;61381;50.118;19.962;2022-10-17T18:24:20;99813.13;;;12.43;96.17
73171;BME280;61381;50.118;19.962;2022-10-17T18:29:21;99814.13;;;12.21;96.92
73171;BME280;61381;50.118;19.962;2022-10-17T18:34:24;99811.19;;;12.23;97.13
73171;BME280;61381;50.118;19.962;2022-10-17T18:39:24;99807.47;;;12.34;97.62
73171;BME280;61381;50.118;19.962;2022-10-17T18:44:28;99805.03;;;12.27;96.98
73171;BME280;61381;50.118;19.962;2022-10-17T18:49:31;99818.13;;;12.13;96.13
73171;BME280;61381;50.118;19.962;2022-10-17T18:54:32;99819.63;;;11.94;98.06
73171;BME280;61381;50.118;19.962;2022-10-17T18:59:32;99805.81;;;11.75;98.44
73171;BME280;61381;50.118;19.962;2022-10-17T19:04:35;99809.88;;;11.83;98.87
73171;BME280;61381;50.118;19.962;2022-10-17T19:09:36;99817.38;;;11.81;98.19
73171;BME280;61381;50.118;19.962;2022-10-17T19:14:37;99804.69;;;11.71;97.65
73171;BME280;61381;50.118;19.962;2022-10-17T19:19:39;99801.16;;;11.65;97.31
73171;BME280;61381;50.118;19.962;2022-10-17T19:24:40;99800.03;;;11.56;96.90
73171;BME280;61381;50.118;19.962;2022-10-17T19:29:41;99799.53;;;11.27;97.68
73171;BME280;61381;50.118;19.962;2022-10-17T19:34:43;99799.09;;;11.35;100.00
73171;BME280;61381;50.118;19.962;2022-10-17T19:39:44;99810.44;;;11.15;99.15
73171;BME280;61381;50.118;19.962;2022-10-17T19:44:45;99811.53;;;11.14;100.00
73171;BME280;61381;50.118;19.962;2022-10-17T19:49:47;99824.41;;;11.17;100.00
73171;BME280;61381;50.118;19.962;2022-10-17T19:54:48;99823.91;;;11.20;100.00
73171;BME280;61381;50.118;19.962;2022-10-17T19:59:49;99817.56;;;11.31;99.79
73171;BME280;61381;50.118;19.962;2022-10-17T20:04:54;99814.34;;;11.29;99.85
73171;BME280;61381;50.118;19.962;2022-10-17T20:09:54;99817.75;;;10.92;98.54
73171;BME280;61381;50.118;19.962;2022-10-17T20:14:55;99824.94;;;10.86;99.67
73171;BME280;61381;50.118;19.962;2022-10-17T20:19:57;99828.41;;;10.38;100.00
73171;BME280;61381;50.118;19.962;2022-10-17T20:24:58;99824.72;;;10.22;100.00
73171;BME280;61381;50.118;19.962;2022-10-17T20:29:59;99828.75;;;10.24;100.00
73171;BME280;61381;50.118;19.962;2022-10-17T20:35:03;99829.63;;;10.52;100.00
73171;BME280;61381;50.118;19.962;2022-10-17T20:40:05;99824.72;;;10.66;100.00
73171;BME280;61381;50.118;19.962;2022-10-17T20:45:07;99816.75;;;10.71;100.00
73171;BME280;61381;50.118;19.962;2022-10-17T20:50:09;99811.47;;;10.54;100.00
73171;BME280;61381;50.118;19.962;2022-10-17T20:55:10;99814.72;;;10.34;100.00
73171;BME280;61381;50.118;19.962;2022-10-17T21:00:12;99813.34;;;10.53;100.00
73171;BME280;61381;50.118;19.962;2022-10-17T21:05:14;99801.94;;;10.41;100.00
73171;BME280;61381;50.118;19.962;2022-10-17T21:10:15;99800.28;;;10.18;100.00
73171;BME280;61381;50.118;19.962;2022-10-17T21:15:16;99797.00;;;10.11;100.00
73171;BME280;61381;50.118;19.962;2022-10-17T21:20:18;99800.03;;;10.20;100.00
73171;BME280;61381;50.118;19.962;2022-10-17T21:25:19;99794.38;;;9.94;100.00
73171;BME280;61381;50.118;19.962;2022-10-17T21:30:20;99786.19;;;9.84;100.00
73171;BME280;61381;50.118;19.962;2022-10-17T21:35:22;99781.78;;;9.94;100.00
73171;BME280;61381;50.118;19.962;2022-10-17T21:40:23;99788.16;;;9.71;100.00
73171;BME280;61381;50.118;19.962;2022-10-17T21:45:24;99781.72;;;9.33;100.00
73171;BME280;61381;50.118;19.962;2022-10-17T21:50:26;99785.25;;;8.88;100.00
73171;BME280;61381;50.118;19.962;2022-10-17T21:55:27;99784.81;;;8.62;100.00
73171;BME280;61381;50.118;19.962;2022-10-17T22:00:28;99785.56;;;8.46;100.00
73171;BME280;61381;50.118;19.962;2022-10-17T22:05:31;99771.81;;;8.42;100.00
73171;BME280;61381;50.118;19.962;2022-10-17T22:10:34;99771.75;;;8.25;100.00
73171;BME280;61381;50.118;19.962;2022-10-17T22:15:35;99772.53;;;8.09;100.00
73171;BME280;61381;50.118;19.962;2022-10-17T22:20:37;99769.03;;;8.08;100.00
73171;BME280;61381;50.118;19.962;2022-10-17T22:25:38;99770.09;;;8.07;100.00
73171;BME280;61381;50.118;19.962;2022-10-17T22:30:39;99766.97;;;7.98;100.00
73171;BME280;61381;50.118;19.962;2022-10-17T22:35:42;99760.69;;;8.04;100.00
73171;BME280;61381;50.118;19.962;2022-10-17T22:40:44;99753.06;;;7.96;100.00
73171;BME280;61381;50.118;19.962;2022-10-17T22:45:50;99755.38;;;7.93;100.00
73171;BME280;61381;50.118;19.962;2022-10-17T22:50:53;99753.88;;;7.85;100.00
73171;BME280;61381;50.118;19.962;2022-10-17T22:55:56;99743.59;;;7.65;100.00
73171;BME280;61381;50.118;19.962;2022-10-17T23:00:58;99752.38;;;7.77;100.00
73171;BME280;61381;50.118;19.962;2022-10-17T23:06:00;99747.50;;;7.74;100.00
73171;BME280;61381;50.118;19.962;2022-10-17T23:11:01;99743.72;;;7.58;100.00
73171;BME280;61381;50.118;19.962;2022-10-17T23:16:02;99744.97;;;7.56;100.00
73171;BME280;61381;50.118;19.962;2022-10-17T23:21:05;99736.38;;;7.65;100.00
73171;BME280;61381;50.118;19.962;2022-10-17T23:26:08;99738.25;;;7.53;100.00
73171;BME280;61381;50.118;19.962;2022-10-17T23:31:11;99730.84;;;7.43;100.00
73171;BME280;61381;50.118;19.962;2022-10-17T23:36:17;99728.63;;;7.28;100.00
73171;BME280;61381;50.118;19.962;2022-10-17T23:41:18;99715.91;;;7.30;100.00
73171;BME280;61381;50.118;19.962;2022-10-17T23:46:18;99715.91;;;7.30;100.00
73171;BME280;61381;50.118;19.962;2022-10-17T23:51:21;99715.09;;;7.30;100.00
73171;BME280;61381;50.118;19.962;2022-10-17T23:56:21;99722.75;;;7.26;100.00
